createdAt,value
2018-07-26T00:04:34.920Z,-57
2018-07-26T00:14:34.888Z,-57
2018-07-26T00:24:34.808Z,-56
2018-07-26T00:34:34.921Z,-57
2018-07-26T00:44:34.846Z,-57
2018-07-26T00:54:34.864Z,-57
2018-07-26T01:04:34.870Z,-56
2018-07-26T01:14:34.844Z,-57
2018-07-26T01:24:34.911Z,-57
2018-07-26T01:34:34.862Z,-57
2018-07-26T01:44:34.963Z,-57
2018-07-26T01:54:34.879Z,-57
2018-07-26T02:04:34.797Z,-58
2018-07-26T02:14:34.959Z,-57
2018-07-26T02:24:34.842Z,-57
2018-07-26T02:34:34.884Z,-57
2018-07-26T02:44:34.871Z,-57
2018-07-26T02:54:34.898Z,-57
2018-07-26T03:04:34.957Z,-56
2018-07-26T03:14:35.188Z,-56
2018-07-26T03:24:34.844Z,-57
2018-07-26T03:34:34.920Z,-56
2018-07-26T03:44:34.851Z,-57
2018-07-26T03:54:34.940Z,-55
2018-07-26T04:04:34.888Z,-57
2018-07-26T04:14:34.970Z,-55
2018-07-26T04:24:34.961Z,-56
2018-07-26T04:34:34.945Z,-57
2018-07-26T04:44:34.923Z,-57
2018-07-26T04:54:34.954Z,-57
2018-07-26T05:04:34.868Z,-57
2018-07-26T05:14:34.949Z,-56
2018-07-26T05:24:34.886Z,-57
2018-07-26T05:34:34.953Z,-58
2018-07-26T05:44:34.987Z,-57
2018-07-26T05:54:34.913Z,-55
2018-07-26T06:04:34.946Z,-59
2018-07-26T06:14:34.809Z,-59
2018-07-26T06:24:34.954Z,-59
2018-07-26T06:34:34.894Z,-59
2018-07-26T06:44:34.861Z,-60
2018-07-26T06:54:34.929Z,-60
2018-07-26T07:04:34.932Z,-61
2018-07-26T07:14:34.984Z,-61
2018-07-26T07:24:34.894Z,-61
2018-07-26T07:34:34.917Z,-62
2018-07-26T07:44:34.972Z,-60
2018-07-26T07:54:34.946Z,-62
2018-07-26T08:04:34.981Z,-62
2018-07-26T08:14:34.937Z,-60
2018-07-26T08:24:35.087Z,-61
2018-07-26T08:34:35.059Z,-62
2018-07-26T08:44:34.969Z,-62
2018-07-26T08:54:34.990Z,-62
2018-07-26T09:04:34.992Z,-61
2018-07-26T09:14:34.995Z,-61
2018-07-26T09:24:35.127Z,-61
2018-07-26T09:34:34.946Z,-59
2018-07-26T09:44:35.052Z,-60
2018-07-26T09:54:34.928Z,-61
2018-07-26T10:04:35.060Z,-61
2018-07-26T10:14:35.033Z,-61
2018-07-26T10:24:35.094Z,-59
2018-07-26T10:34:35.011Z,-60
2018-07-26T10:44:35.039Z,-60
2018-07-26T10:54:35.021Z,-60
2018-07-26T11:04:34.983Z,-60
2018-07-26T11:14:35.064Z,-60
2018-07-26T11:24:35.028Z,-60
2018-07-26T11:34:35.018Z,-61
2018-07-26T11:44:35.032Z,-60
2018-07-26T11:54:35.018Z,-60
2018-07-26T12:04:35.129Z,-60
2018-07-26T12:14:35.013Z,-60
2018-07-26T12:24:35.060Z,-61
2018-07-26T12:34:35.043Z,-60
2018-07-26T12:44:34.992Z,-58
2018-07-26T12:54:35.049Z,-60
2018-07-26T13:04:35.072Z,-60
2018-07-26T13:14:35.056Z,-60
2018-07-26T13:24:35.015Z,-60
2018-07-26T13:34:34.997Z,-59
2018-07-26T13:44:35.082Z,-60
2018-07-26T13:54:34.989Z,-59
2018-07-26T14:04:35.092Z,-61
2018-07-26T14:14:35.054Z,-60
2018-07-26T14:24:35.131Z,-61
2018-07-26T14:34:35.030Z,-62
2018-07-26T14:44:35.017Z,-56
2018-07-26T14:54:35.154Z,-60
2018-07-26T15:04:35.703Z,-60
2018-07-26T15:14:35.313Z,-61
2018-07-26T15:24:35.789Z,-61
2018-07-26T15:34:35.692Z,-60
2018-07-26T15:44:42.576Z,-60
2018-07-26T15:54:35.243Z,-59
2018-07-26T16:04:35.350Z,-61
2018-07-26T16:14:47.397Z,-61
2018-07-26T16:24:35.199Z,-62
2018-07-26T16:34:35.866Z,-60
2018-07-26T16:44:35.242Z,-61
2018-07-26T16:54:35.100Z,-60
2018-07-26T17:04:35.034Z,-60
2018-07-26T17:14:35.241Z,-60
2018-07-26T17:24:35.144Z,-60
2018-07-26T17:34:35.315Z,-60
2018-07-26T17:44:35.206Z,-60
2018-07-26T17:54:36.429Z,-66
2018-07-26T18:04:35.242Z,-60
2018-07-26T18:14:35.054Z,-64
2018-07-26T18:24:35.670Z,-64
2018-07-26T18:34:35.086Z,-58
2018-07-26T18:44:35.161Z,-65
2018-07-26T18:54:38.462Z,-64
2018-07-26T19:04:35.110Z,-63
2018-07-26T19:14:35.252Z,-59
2018-07-26T19:24:35.155Z,-66
2018-07-26T19:34:35.241Z,-62
2018-07-26T19:44:35.178Z,-64
2018-07-26T19:54:35.243Z,-61
2018-07-26T20:04:35.187Z,-66
2018-07-26T20:14:35.158Z,-65
2018-07-26T20:24:36.142Z,-61
2018-07-26T20:34:36.347Z,-63
2018-07-26T20:44:39.665Z,-67
2018-07-26T20:54:35.745Z,-64
2018-07-26T21:04:35.253Z,-60
2018-07-26T21:14:36.277Z,-70
2018-07-26T21:24:36.429Z,-66
2018-07-26T21:34:35.231Z,-64
2018-07-26T21:44:35.431Z,-63
2018-07-26T21:54:35.258Z,-63
2018-07-26T22:04:35.220Z,-59
2018-07-26T22:14:36.855Z,-63
2018-07-26T22:24:35.289Z,-59
2018-07-26T22:34:35.570Z,-59
2018-07-26T22:44:36.139Z,-59
2018-07-26T22:54:35.536Z,-61
2018-07-26T23:04:46.422Z,-58
2018-07-26T23:14:47.352Z,-58
2018-07-26T23:24:35.890Z,-60
2018-07-26T23:34:35.329Z,-60
2018-07-26T23:44:36.300Z,-61
2018-07-26T23:54:35.303Z,-59
